sensor_id;sensor_type;location;lat;lon;timestamp;P1;durP1;ratioP1;P2;durP2;ratioP2
23072;SDS011;34865;51.046;3.732;2022-12-15T04:51:29;53.80;;;25.50;;
23072;SDS011;34865;51.046;3.732;2022-12-15T04:54:13;53.93;;;26.27;;
23072;SDS011;34865;51.046;3.732;2022-12-15T04:56:57;59.87;;;27.93;;
23072;SDS011;34865;51.046;3.732;2022-12-15T04:59:41;49.57;;;24.73;;
23072;SDS011;34865;51.046;3.732;2022-12-15T05:02:25;53.30;;;24.87;;
23072;SDS011;34865;51.046;3.732;2022-12-15T05:05:09;52.80;;;25.57;;
23072;SDS011;34865;51.046;3.732;2022-12-15T05:07:56;50.20;;;26.10;;
23072;SDS011;34865;51.046;3.732;2022-12-15T05:10:40;54.20;;;26.67;;
23072;SDS011;34865;51.046;3.732;2022-12-15T05:13:24;60.50;;;28.47;;
23072;SDS011;34865;51.046;3.732;2022-12-15T05:16:08;49.87;;;25.73;;
23072;SDS011;34865;51.046;3.732;2022-12-15T05:18:52;50.33;;;27.03;;
23072;SDS011;34865;51.046;3.732;2022-12-15T05:21:36;55.20;;;27.10;;
23072;SDS011;34865;51.046;3.732;2022-12-15T05:24:21;48.30;;;25.90;;
23072;SDS011;34865;51.046;3.732;2022-12-15T05:27:05;58.40;;;28.77;;
23072;SDS011;34865;51.046;3.732;2022-12-15T05:29:49;55.23;;;26.77;;
23072;SDS011;34865;51.046;3.732;2022-12-15T05:32:33;59.50;;;26.53;;
23072;SDS011;34865;51.046;3.732;2022-12-15T05:34:59;52.00;;;27.00;;
23072;SDS011;34865;51.046;3.732;2022-12-15T05:37:25;55.00;;;26.43;;
23072;SDS011;34865;51.046;3.732;2022-12-15T05:39:51;59.07;;;26.50;;
23072;SDS011;34865;51.046;3.732;2022-12-15T05:42:16;56.57;;;27.33;;
23072;SDS011;34865;51.046;3.732;2022-12-15T05:44:42;61.07;;;27.63;;
23072;SDS011;34865;51.046;3.732;2022-12-15T05:47:07;52.23;;;26.40;;
23072;SDS011;34865;51.046;3.732;2022-12-15T05:49:35;53.93;;;27.13;;
23072;SDS011;34865;51.046;3.732;2022-12-15T05:52:01;53.43;;;27.73;;
23072;SDS011;34865;51.046;3.732;2022-12-15T05:54:27;58.17;;;27.40;;
23072;SDS011;34865;51.046;3.732;2022-12-15T05:56:52;59.33;;;28.17;;
23072;SDS011;34865;51.046;3.732;2022-12-15T05:59:18;51.97;;;27.07;;
23072;SDS011;34865;51.046;3.732;2022-12-15T06:01:44;59.70;;;30.57;;
23072;SDS011;34865;51.046;3.732;2022-12-15T06:04:10;51.07;;;28.03;;
23072;SDS011;34865;51.046;3.732;2022-12-15T06:06:36;56.73;;;28.43;;
23072;SDS011;34865;51.046;3.732;2022-12-15T06:09:03;56.43;;;28.20;;
23072;SDS011;34865;51.046;3.732;2022-12-15T06:11:29;53.83;;;27.53;;
23072;SDS011;34865;51.046;3.732;2022-12-15T06:13:54;55.57;;;28.77;;
23072;SDS011;34865;51.046;3.732;2022-12-15T06:16:22;57.90;;;27.90;;
23072;SDS011;34865;51.046;3.732;2022-12-15T06:18:51;63.47;;;30.43;;
23072;SDS011;34865;51.046;3.732;2022-12-15T06:21:22;60.43;;;28.63;;
23072;SDS011;34865;51.046;3.732;2022-12-15T06:23:49;54.27;;;27.50;;
23072;SDS011;34865;51.046;3.732;2022-12-15T06:26:19;58.20;;;26.33;;
23072;SDS011;34865;51.046;3.732;2022-12-15T06:28:49;57.90;;;28.60;;
23072;SDS011;34865;51.046;3.732;2022-12-15T06:31:19;61.53;;;28.83;;
23072;SDS011;34865;51.046;3.732;2022-12-15T06:33:49;70.57;;;29.03;;
23072;SDS011;34865;51.046;3.732;2022-12-15T06:36:17;57.80;;;27.60;;
23072;SDS011;34865;51.046;3.732;2022-12-15T06:38:56;56.60;;;27.77;;
23072;SDS011;34865;51.046;3.732;2022-12-15T06:41:31;62.03;;;27.53;;
23072;SDS011;34865;51.046;3.732;2022-12-15T06:43:57;61.07;;;29.27;;
23072;SDS011;34865;51.046;3.732;2022-12-15T06:46:25;50.43;;;27.33;;
23072;SDS011;34865;51.046;3.732;2022-12-15T06:48:52;52.60;;;27.40;;
23072;SDS011;34865;51.046;3.732;2022-12-15T06:51:22;59.10;;;27.90;;
23072;SDS011;34865;51.046;3.732;2022-12-15T06:53:49;65.33;;;29.13;;
23072;SDS011;34865;51.046;3.732;2022-12-15T06:56:24;60.00;;;28.03;;
23072;SDS011;34865;51.046;3.732;2022-12-15T06:58:51;65.60;;;29.43;;
23072;SDS011;34865;51.046;3.732;2022-12-15T07:01:17;57.87;;;27.33;;
23072;SDS011;34865;51.046;3.732;2022-12-15T07:03:45;56.50;;;26.90;;
23072;SDS011;34865;51.046;3.732;2022-12-15T07:06:11;47.70;;;24.30;;
23072;SDS011;34865;51.046;3.732;2022-12-15T07:08:39;49.47;;;26.57;;
23072;SDS011;34865;51.046;3.732;2022-12-15T07:11:06;59.03;;;27.10;;
23072;SDS011;34865;51.046;3.732;2022-12-15T07:13:34;51.80;;;27.07;;
23072;SDS011;34865;51.046;3.732;2022-12-15T07:16:00;57.00;;;27.73;;
23072;SDS011;34865;51.046;3.732;2022-12-15T07:18:27;58.27;;;27.37;;
23072;SDS011;34865;51.046;3.732;2022-12-15T07:20:53;55.80;;;26.90;;
23072;SDS011;34865;51.046;3.732;2022-12-15T07:23:20;58.07;;;27.70;;
23072;SDS011;34865;51.046;3.732;2022-12-15T07:25:46;58.23;;;27.03;;
23072;SDS011;34865;51.046;3.732;2022-12-15T07:28:11;55.67;;;26.90;;
23072;SDS011;34865;51.046;3.732;2022-12-15T07:30:37;57.93;;;29.53;;
23072;SDS011;34865;51.046;3.732;2022-12-15T07:33:03;53.83;;;26.80;;
23072;SDS011;34865;51.046;3.732;2022-12-15T07:35:30;59.73;;;28.60;;
23072;SDS011;34865;51.046;3.732;2022-12-15T07:37:56;61.90;;;27.87;;
23072;SDS011;34865;51.046;3.732;2022-12-15T07:40:22;56.37;;;27.37;;
23072;SDS011;34865;51.046;3.732;2022-12-15T07:42:47;58.33;;;27.63;;
23072;SDS011;34865;51.046;3.732;2022-12-15T07:45:13;59.27;;;27.47;;
23072;SDS011;34865;51.046;3.732;2022-12-15T07:47:39;60.80;;;27.83;;
23072;SDS011;34865;51.046;3.732;2022-12-15T07:50:05;66.13;;;25.37;;
23072;SDS011;34865;51.046;3.732;2022-12-15T07:52:33;54.20;;;25.80;;
23072;SDS011;34865;51.046;3.732;2022-12-15T07:54:59;59.10;;;26.80;;
23072;SDS011;34865;51.046;3.732;2022-12-15T07:57:25;58.70;;;26.73;;
23072;SDS011;34865;51.046;3.732;2022-12-15T07:59:50;57.87;;;25.80;;
23072;SDS011;34865;51.046;3.732;2022-12-15T08:02:16;54.10;;;26.83;;
23072;SDS011;34865;51.046;3.732;2022-12-15T08:04:42;50.60;;;25.83;;
23072;SDS011;34865;51.046;3.732;2022-12-15T08:07:08;53.33;;;25.17;;
23072;SDS011;34865;51.046;3.732;2022-12-15T08:09:35;55.37;;;25.73;;
23072;SDS011;34865;51.046;3.732;2022-12-15T08:12:00;46.07;;;22.43;;
23072;SDS011;34865;51.046;3.732;2022-12-15T08:14:27;58.13;;;25.67;;
23072;SDS011;34865;51.046;3.732;2022-12-15T08:16:53;61.80;;;26.97;;
23072;SDS011;34865;51.046;3.732;2022-12-15T08:19:18;56.73;;;26.77;;
23072;SDS011;34865;51.046;3.732;2022-12-15T08:21:44;56.13;;;26.37;;
23072;SDS011;34865;51.046;3.732;2022-12-15T08:24:11;57.63;;;26.63;;
23072;SDS011;34865;51.046;3.732;2022-12-15T08:26:38;59.07;;;25.03;;
23072;SDS011;34865;51.046;3.732;2022-12-15T08:29:06;55.30;;;26.20;;
23072;SDS011;34865;51.046;3.732;2022-12-15T08:31:35;53.53;;;26.90;;
23072;SDS011;34865;51.046;3.732;2022-12-15T08:34:00;52.43;;;28.60;;
23072;SDS011;34865;51.046;3.732;2022-12-15T08:36:27;49.83;;;27.17;;
23072;SDS011;34865;51.046;3.732;2022-12-15T08:38:54;48.30;;;26.40;;
23072;SDS011;34865;51.046;3.732;2022-12-15T08:41:23;48.80;;;26.10;;
23072;SDS011;34865;51.046;3.732;2022-12-15T08:43:51;58.23;;;26.50;;
23072;SDS011;34865;51.046;3.732;2022-12-15T08:46:21;60.37;;;28.33;;
23072;SDS011;34865;51.046;3.732;2022-12-15T08:48:49;50.23;;;25.13;;
23072;SDS011;34865;51.046;3.732;2022-12-15T08:51:16;52.53;;;25.80;;
23072;SDS011;34865;51.046;3.732;2022-12-15T08:53:42;55.87;;;26.17;;
23072;SDS011;34865;51.046;3.732;2022-12-15T08:56:09;55.67;;;27.13;;
23072;SDS011;34865;51.046;3.732;2022-12-15T08:58:42;55.73;;;25.43;;
23072;SDS011;34865;51.046;3.732;2022-12-15T09:01:19;55.63;;;26.47;;
23072;SDS011;34865;51.046;3.732;2022-12-15T09:03:46;52.77;;;27.10;;
23072;SDS011;34865;51.046;3.732;2022-12-15T09:06:14;54.90;;;27.00;;
23072;SDS011;34865;51.046;3.732;2022-12-15T09:08:45;55.03;;;26.87;;
23072;SDS011;34865;51.046;3.732;2022-12-15T09:11:11;48.37;;;27.07;;
23072;SDS011;34865;51.046;3.732;2022-12-15T09:13:37;47.17;;;24.77;;
23072;SDS011;34865;51.046;3.732;2022-12-15T09:16:08;45.67;;;23.73;;
23072;SDS011;34865;51.046;3.732;2022-12-15T09:18:46;59.40;;;25.07;;
23072;SDS011;34865;51.046;3.732;2022-12-15T09:21:16;46.90;;;23.53;;
23072;SDS011;34865;51.046;3.732;2022-12-15T09:23:46;44.07;;;23.87;;
23072;SDS011;34865;51.046;3.732;2022-12-15T09:26:15;46.00;;;24.97;;
23072;SDS011;34865;51.046;3.732;2022-12-15T09:28:41;51.67;;;25.00;;
23072;SDS011;34865;51.046;3.732;2022-12-15T09:31:12;45.03;;;25.00;;
23072;SDS011;34865;51.046;3.732;2022-12-15T09:33:43;45.60;;;25.83;;
23072;SDS011;34865;51.046;3.732;2022-12-15T09:36:09;42.37;;;25.07;;
23072;SDS011;34865;51.046;3.732;2022-12-15T09:38:37;46.70;;;25.63;;
23072;SDS011;34865;51.046;3.732;2022-12-15T09:43:42;51.13;;;27.97;;
23072;SDS011;34865;51.046;3.732;2022-12-15T09:46:39;50.73;;;28.83;;
23072;SDS011;34865;51.046;3.732;2022-12-15T09:49:29;47.33;;;27.53;;
23072;SDS011;34865;51.046;3.732;2022-12-15T09:52:24;46.50;;;27.40;;
23072;SDS011;34865;51.046;3.732;2022-12-15T09:54:53;45.03;;;27.13;;
23072;SDS011;34865;51.046;3.732;2022-12-15T09:57:42;46.57;;;27.60;;
23072;SDS011;34865;51.046;3.732;2022-12-15T10:00:21;51.50;;;28.87;;
23072;SDS011;34865;51.046;3.732;2022-12-15T10:06:01;53.17;;;27.33;;
23072;SDS011;34865;51.046;3.732;2022-12-15T10:08:36;53.83;;;28.03;;
23072;SDS011;34865;51.046;3.732;2022-12-15T10:17:01;51.17;;;28.70;;
23072;SDS011;34865;51.046;3.732;2022-12-15T10:22:04;56.63;;;29.57;;
23072;SDS011;34865;51.046;3.732;2022-12-15T10:24:34;60.80;;;30.53;;
23072;SDS011;34865;51.046;3.732;2022-12-15T10:27:17;63.63;;;31.37;;
23072;SDS011;34865;51.046;3.732;2022-12-15T10:30:00;52.20;;;28.53;;
23072;SDS011;34865;51.046;3.732;2022-12-15T10:35:11;52.30;;;28.83;;
23072;SDS011;34865;51.046;3.732;2022-12-15T10:37:59;54.97;;;27.60;;
23072;SDS011;34865;51.046;3.732;2022-12-15T10:46:06;53.90;;;26.57;;
23072;SDS011;34865;51.046;3.732;2022-12-15T10:48:38;58.07;;;28.03;;
23072;SDS011;34865;51.046;3.732;2022-12-15T10:51:25;56.10;;;28.33;;
23072;SDS011;34865;51.046;3.732;2022-12-15T10:56:48;57.83;;;28.97;;
23072;SDS011;34865;51.046;3.732;2022-12-15T11:02:20;62.60;;;30.37;;
23072;SDS011;34865;51.046;3.732;2022-12-15T11:04:59;71.33;;;34.83;;
23072;SDS011;34865;51.046;3.732;2022-12-15T11:07:35;60.17;;;31.40;;
23072;SDS011;34865;51.046;3.732;2022-12-15T11:10:26;68.10;;;35.23;;
23072;SDS011;34865;51.046;3.732;2022-12-15T11:13:19;62.53;;;32.03;;
23072;SDS011;34865;51.046;3.732;2022-12-15T11:15:47;57.13;;;30.40;;
23072;SDS011;34865;51.046;3.732;2022-12-15T11:21:28;66.53;;;32.43;;
23072;SDS011;34865;51.046;3.732;2022-12-15T11:29:17;58.07;;;27.33;;
23072;SDS011;34865;51.046;3.732;2022-12-15T11:31:46;58.97;;;31.00;;
23072;SDS011;34865;51.046;3.732;2022-12-15T11:34:14;58.73;;;33.23;;
23072;SDS011;34865;51.046;3.732;2022-12-15T11:37:06;74.70;;;36.10;;
23072;SDS011;34865;51.046;3.732;2022-12-15T11:50:55;67.10;;;34.97;;
23072;SDS011;34865;51.046;3.732;2022-12-15T12:10:11;59.37;;;34.30;;
23072;SDS011;34865;51.046;3.732;2022-12-15T12:15:32;70.10;;;34.90;;
23072;SDS011;34865;51.046;3.732;2022-12-15T12:18:20;68.67;;;36.30;;
23072;SDS011;34865;51.046;3.732;2022-12-15T12:21:07;70.30;;;38.43;;
23072;SDS011;34865;51.046;3.732;2022-12-15T12:23:56;65.17;;;36.30;;
23072;SDS011;34865;51.046;3.732;2022-12-15T12:26:28;69.13;;;36.43;;
23072;SDS011;34865;51.046;3.732;2022-12-15T12:34:18;71.83;;;35.13;;
23072;SDS011;34865;51.046;3.732;2022-12-15T12:40:06;56.23;;;33.50;;
23072;SDS011;34865;51.046;3.732;2022-12-15T12:42:58;64.47;;;34.10;;
23072;SDS011;34865;51.046;3.732;2022-12-15T12:48:29;89.83;;;37.87;;
23072;SDS011;34865;51.046;3.732;2022-12-15T12:51:10;88.90;;;35.27;;
23072;SDS011;34865;51.046;3.732;2022-12-15T12:53:43;74.77;;;34.67;;
23072;SDS011;34865;51.046;3.732;2022-12-15T12:56:28;63.43;;;35.37;;
23072;SDS011;34865;51.046;3.732;2022-12-15T12:59:00;68.27;;;34.33;;
23072;SDS011;34865;51.046;3.732;2022-12-15T13:01:32;70.87;;;35.33;;
23072;SDS011;34865;51.046;3.732;2022-12-15T13:04:05;65.13;;;34.50;;
23072;SDS011;34865;51.046;3.732;2022-12-15T13:14:34;65.53;;;35.27;;
23072;SDS011;34865;51.046;3.732;2022-12-15T13:22:23;64.17;;;33.53;;
23072;SDS011;34865;51.046;3.732;2022-12-15T13:24:59;63.87;;;34.93;;
23072;SDS011;34865;51.046;3.732;2022-12-15T13:27:33;62.07;;;33.73;;
23072;SDS011;34865;51.046;3.732;2022-12-15T13:32:36;64.20;;;33.70;;
23072;SDS011;34865;51.046;3.732;2022-12-15T13:37:43;67.50;;;34.80;;
23072;SDS011;34865;51.046;3.732;2022-12-15T13:40:28;59.67;;;35.10;;
23072;SDS011;34865;51.046;3.732;2022-12-15T13:48:19;62.87;;;33.80;;
23072;SDS011;34865;51.046;3.732;2022-12-15T13:51:09;59.77;;;34.00;;
23072;SDS011;34865;51.046;3.732;2022-12-15T13:53:59;66.33;;;31.80;;
23072;SDS011;34865;51.046;3.732;2022-12-15T14:02:21;87.17;;;32.40;;
23072;SDS011;34865;51.046;3.732;2022-12-15T14:12:51;71.87;;;33.53;;
23072;SDS011;34865;51.046;3.732;2022-12-15T14:15:27;69.33;;;33.37;;
23072;SDS011;34865;51.046;3.732;2022-12-15T14:17:56;62.33;;;31.93;;
23072;SDS011;34865;51.046;3.732;2022-12-15T14:20:29;67.30;;;31.53;;
23072;SDS011;34865;51.046;3.732;2022-12-15T14:23:05;62.27;;;32.80;;
23072;SDS011;34865;51.046;3.732;2022-12-15T14:25:56;64.13;;;33.17;;
23072;SDS011;34865;51.046;3.732;2022-12-15T14:28:35;68.50;;;34.07;;
23072;SDS011;34865;51.046;3.732;2022-12-15T14:31:10;55.33;;;34.03;;
23072;SDS011;34865;51.046;3.732;2022-12-15T14:33:40;60.40;;;33.17;;
23072;SDS011;34865;51.046;3.732;2022-12-15T14:36:09;61.90;;;33.60;;
23072;SDS011;34865;51.046;3.732;2022-12-15T14:38:40;67.13;;;34.73;;
23072;SDS011;34865;51.046;3.732;2022-12-15T14:41:23;59.77;;;33.37;;
23072;SDS011;34865;51.046;3.732;2022-12-15T14:43:52;65.23;;;35.23;;
23072;SDS011;34865;51.046;3.732;2022-12-15T14:46:22;69.83;;;34.20;;
23072;SDS011;34865;51.046;3.732;2022-12-15T14:48:52;62.77;;;34.90;;
23072;SDS011;34865;51.046;3.732;2022-12-15T14:51:20;64.53;;;36.07;;
23072;SDS011;34865;51.046;3.732;2022-12-15T14:53:48;60.77;;;34.77;;
23072;SDS011;34865;51.046;3.732;2022-12-15T14:58:53;60.77;;;34.57;;
23072;SDS011;34865;51.046;3.732;2022-12-15T15:04:52;86.97;;;37.57;;
23072;SDS011;34865;51.046;3.732;2022-12-15T15:06:59;79.97;;;36.30;;
23072;SDS011;34865;51.046;3.732;2022-12-15T15:09:28;78.73;;;36.90;;
23072;SDS011;34865;51.046;3.732;2022-12-15T15:12:04;76.73;;;36.47;;
23072;SDS011;34865;51.046;3.732;2022-12-15T15:14:36;75.00;;;37.23;;
23072;SDS011;34865;51.046;3.732;2022-12-15T15:17:21;64.83;;;35.63;;
23072;SDS011;34865;51.046;3.732;2022-12-15T15:20:06;62.80;;;36.07;;
23072;SDS011;34865;51.046;3.732;2022-12-15T15:22:44;61.30;;;35.50;;
23072;SDS011;34865;51.046;3.732;2022-12-15T15:27:51;80.17;;;37.03;;
23072;SDS011;34865;51.046;3.732;2022-12-15T15:30:24;74.20;;;38.53;;
23072;SDS011;34865;51.046;3.732;2022-12-15T15:32:57;64.80;;;35.67;;
23072;SDS011;34865;51.046;3.732;2022-12-15T15:35:28;66.90;;;34.60;;
23072;SDS011;34865;51.046;3.732;2022-12-15T15:37:58;70.03;;;36.67;;
23072;SDS011;34865;51.046;3.732;2022-12-15T15:40:52;68.87;;;35.60;;
23072;SDS011;34865;51.046;3.732;2022-12-15T15:43:22;68.70;;;34.90;;
23072;SDS011;34865;51.046;3.732;2022-12-15T15:45:49;67.67;;;35.17;;
23072;SDS011;34865;51.046;3.732;2022-12-15T15:48:30;62.13;;;33.37;;
23072;SDS011;34865;51.046;3.732;2022-12-15T15:51:01;65.07;;;34.73;;
23072;SDS011;34865;51.046;3.732;2022-12-15T15:53:28;60.37;;;33.43;;
23072;SDS011;34865;51.046;3.732;2022-12-15T15:55:56;60.17;;;34.20;;
23072;SDS011;34865;51.046;3.732;2022-12-15T15:58:22;69.70;;;36.10;;
23072;SDS011;34865;51.046;3.732;2022-12-15T16:00:48;67.60;;;35.07;;
23072;SDS011;34865;51.046;3.732;2022-12-15T16:03:14;62.37;;;33.73;;
23072;SDS011;34865;51.046;3.732;2022-12-15T16:05:40;70.10;;;35.37;;
23072;SDS011;34865;51.046;3.732;2022-12-15T16:08:08;64.90;;;34.63;;
23072;SDS011;34865;51.046;3.732;2022-12-15T16:10:39;72.50;;;36.93;;
23072;SDS011;34865;51.046;3.732;2022-12-15T16:13:08;69.40;;;34.57;;
23072;SDS011;34865;51.046;3.732;2022-12-15T16:15:35;70.77;;;36.40;;
23072;SDS011;34865;51.046;3.732;2022-12-15T16:18:01;68.93;;;35.87;;
23072;SDS011;34865;51.046;3.732;2022-12-15T16:20:30;64.63;;;34.63;;
23072;SDS011;34865;51.046;3.732;2022-12-15T16:23:02;64.37;;;36.87;;
23072;SDS011;34865;51.046;3.732;2022-12-15T16:25:39;62.70;;;34.47;;
23072;SDS011;34865;51.046;3.732;2022-12-15T16:28:17;61.30;;;32.80;;
23072;SDS011;34865;51.046;3.732;2022-12-15T16:31:26;68.87;;;38.20;;
23072;SDS011;34865;51.046;3.732;2022-12-15T16:33:57;77.60;;;38.03;;
23072;SDS011;34865;51.046;3.732;2022-12-15T16:36:23;73.90;;;40.47;;
23072;SDS011;34865;51.046;3.732;2022-12-15T16:38:48;74.97;;;41.17;;
23072;SDS011;34865;51.046;3.732;2022-12-15T16:41:14;73.77;;;40.47;;
23072;SDS011;34865;51.046;3.732;2022-12-15T16:43:41;78.80;;;41.90;;
23072;SDS011;34865;51.046;3.732;2022-12-15T16:46:10;79.63;;;41.77;;
23072;SDS011;34865;51.046;3.732;2022-12-15T16:48:38;72.13;;;40.83;;
23072;SDS011;34865;51.046;3.732;2022-12-15T16:51:05;82.75;;;52.85;;
23072;SDS011;34865;51.046;3.732;2022-12-15T16:53:33;91.73;;;46.87;;
23072;SDS011;34865;51.046;3.732;2022-12-15T16:56:03;83.63;;;44.90;;
23072;SDS011;34865;51.046;3.732;2022-12-15T16:58:33;74.43;;;43.80;;
23072;SDS011;34865;51.046;3.732;2022-12-15T17:00:59;84.40;;;43.83;;
23072;SDS011;34865;51.046;3.732;2022-12-15T17:03:26;77.33;;;42.57;;
23072;SDS011;34865;51.046;3.732;2022-12-15T17:05:52;74.97;;;41.40;;
23072;SDS011;34865;51.046;3.732;2022-12-15T17:08:21;80.37;;;42.97;;
23072;SDS011;34865;51.046;3.732;2022-12-15T17:10:49;83.03;;;44.17;;
23072;SDS011;34865;51.046;3.732;2022-12-15T17:13:35;78.90;;;42.80;;
23072;SDS011;34865;51.046;3.732;2022-12-15T17:16:03;85.17;;;43.40;;
23072;SDS011;34865;51.046;3.732;2022-12-15T17:18:32;84.07;;;45.13;;
23072;SDS011;34865;51.046;3.732;2022-12-15T17:21:02;86.27;;;46.23;;
23072;SDS011;34865;51.046;3.732;2022-12-15T17:23:36;81.77;;;42.37;;
23072;SDS011;34865;51.046;3.732;2022-12-15T17:26:03;77.37;;;45.77;;
23072;SDS011;34865;51.046;3.732;2022-12-15T17:28:31;74.20;;;43.63;;
23072;SDS011;34865;51.046;3.732;2022-12-15T17:31:00;93.23;;;46.13;;
23072;SDS011;34865;51.046;3.732;2022-12-15T17:33:27;85.20;;;45.93;;
23072;SDS011;34865;51.046;3.732;2022-12-15T17:36:01;92.10;;;47.87;;
23072;SDS011;34865;51.046;3.732;2022-12-15T17:38:36;84.50;;;45.10;;
23072;SDS011;34865;51.046;3.732;2022-12-15T17:41:02;83.17;;;44.20;;
23072;SDS011;34865;51.046;3.732;2022-12-15T17:43:27;83.83;;;47.70;;
23072;SDS011;34865;51.046;3.732;2022-12-15T17:45:53;85.80;;;47.87;;
23072;SDS011;34865;51.046;3.732;2022-12-15T17:48:20;94.60;;;48.70;;
23072;SDS011;34865;51.046;3.732;2022-12-15T17:50:46;92.17;;;49.43;;
23072;SDS011;34865;51.046;3.732;2022-12-15T17:53:16;98.97;;;51.30;;
23072;SDS011;34865;51.046;3.732;2022-12-15T17:55:43;92.73;;;49.93;;
23072;SDS011;34865;51.046;3.732;2022-12-15T17:58:19;94.17;;;51.47;;
23072;SDS011;34865;51.046;3.732;2022-12-15T18:00:45;97.63;;;50.47;;
23072;SDS011;34865;51.046;3.732;2022-12-15T18:03:15;95.10;;;52.27;;
23072;SDS011;34865;51.046;3.732;2022-12-15T18:05:42;106.90;;;54.10;;
23072;SDS011;34865;51.046;3.732;2022-12-15T18:08:13;92.97;;;49.63;;
23072;SDS011;34865;51.046;3.732;2022-12-15T18:10:41;89.40;;;49.77;;
23072;SDS011;34865;51.046;3.732;2022-12-15T18:13:20;97.57;;;52.67;;
23072;SDS011;34865;51.046;3.732;2022-12-15T18:15:51;94.50;;;52.07;;
23072;SDS011;34865;51.046;3.732;2022-12-15T18:18:18;102.40;;;53.23;;
23072;SDS011;34865;51.046;3.732;2022-12-15T18:20:48;104.97;;;53.30;;
23072;SDS011;34865;51.046;3.732;2022-12-15T18:23:20;108.70;;;53.83;;
23072;SDS011;34865;51.046;3.732;2022-12-15T18:25:48;106.43;;;52.57;;
23072;SDS011;34865;51.046;3.732;2022-12-15T18:28:24;101.23;;;56.03;;
23072;SDS011;34865;51.046;3.732;2022-12-15T18:30:53;99.73;;;54.77;;
23072;SDS011;34865;51.046;3.732;2022-12-15T18:33:20;109.13;;;55.70;;
23072;SDS011;34865;51.046;3.732;2022-12-15T18:35:48;98.30;;;54.27;;
23072;SDS011;34865;51.046;3.732;2022-12-15T18:40:41;99.40;;;53.23;;
23072;SDS011;34865;51.046;3.732;2022-12-15T18:43:28;103.47;;;53.60;;
23072;SDS011;34865;51.046;3.732;2022-12-15T18:45:55;102.97;;;52.57;;
23072;SDS011;34865;51.046;3.732;2022-12-15T18:48:28;94.83;;;52.73;;
23072;SDS011;34865;51.046;3.732;2022-12-15T18:50:56;94.73;;;52.80;;
23072;SDS011;34865;51.046;3.732;2022-12-15T18:53:30;91.20;;;51.70;;
23072;SDS011;34865;51.046;3.732;2022-12-15T18:55:58;89.83;;;50.07;;
23072;SDS011;34865;51.046;3.732;2022-12-15T18:58:29;93.43;;;48.67;;
23072;SDS011;34865;51.046;3.732;2022-12-15T19:00:57;92.87;;;51.93;;
23072;SDS011;34865;51.046;3.732;2022-12-15T19:03:25;98.33;;;50.53;;
23072;SDS011;34865;51.046;3.732;2022-12-15T19:05:55;93.63;;;49.97;;
23072;SDS011;34865;51.046;3.732;2022-12-15T19:08:24;93.13;;;49.10;;
23072;SDS011;34865;51.046;3.732;2022-12-15T19:11:04;89.60;;;48.73;;
23072;SDS011;34865;51.046;3.732;2022-12-15T19:13:35;95.07;;;52.13;;
23072;SDS011;34865;51.046;3.732;2022-12-15T19:16:03;99.97;;;51.60;;
23072;SDS011;34865;51.046;3.732;2022-12-15T19:18:30;94.80;;;50.17;;
23072;SDS011;34865;51.046;3.732;2022-12-15T19:24:06;97.00;;;50.77;;
23072;SDS011;34865;51.046;3.732;2022-12-15T19:26:34;92.90;;;49.53;;
23072;SDS011;34865;51.046;3.732;2022-12-15T19:29:00;92.53;;;51.83;;
23072;SDS011;34865;51.046;3.732;2022-12-15T19:31:26;92.83;;;49.80;;
23072;SDS011;34865;51.046;3.732;2022-12-15T19:33:51;89.60;;;50.63;;
23072;SDS011;34865;51.046;3.732;2022-12-15T19:36:18;103.10;;;50.13;;
23072;SDS011;34865;51.046;3.732;2022-12-15T19:38:47;90.00;;;49.80;;
23072;SDS011;34865;51.046;3.732;2022-12-15T19:41:16;92.10;;;51.93;;
23072;SDS011;34865;51.046;3.732;2022-12-15T19:43:42;88.77;;;48.80;;
23072;SDS011;34865;51.046;3.732;2022-12-15T19:46:11;99.63;;;50.23;;
23072;SDS011;34865;51.046;3.732;2022-12-15T19:48:39;89.17;;;48.13;;
23072;SDS011;34865;51.046;3.732;2022-12-15T19:51:09;84.27;;;47.27;;
23072;SDS011;34865;51.046;3.732;2022-12-15T19:53:44;83.50;;;47.37;;
23072;SDS011;34865;51.046;3.732;2022-12-15T19:56:13;81.10;;;46.77;;
23072;SDS011;34865;51.046;3.732;2022-12-15T19:58:41;89.97;;;48.17;;
23072;SDS011;34865;51.046;3.732;2022-12-15T20:01:09;95.17;;;51.27;;
23072;SDS011;34865;51.046;3.732;2022-12-15T20:03:36;81.43;;;49.47;;
23072;SDS011;34865;51.046;3.732;2022-12-15T20:06:02;85.40;;;47.77;;
23072;SDS011;34865;51.046;3.732;2022-12-15T20:08:34;88.87;;;49.30;;
23072;SDS011;34865;51.046;3.732;2022-12-15T20:11:02;95.00;;;48.93;;
23072;SDS011;34865;51.046;3.732;2022-12-15T20:13:29;89.57;;;48.10;;
23072;SDS011;34865;51.046;3.732;2022-12-15T20:15:54;89.93;;;48.70;;
23072;SDS011;34865;51.046;3.732;2022-12-15T20:18:20;96.03;;;48.37;;
23072;SDS011;34865;51.046;3.732;2022-12-15T20:20:46;85.43;;;46.93;;
23072;SDS011;34865;51.046;3.732;2022-12-15T20:23:17;87.33;;;46.50;;
23072;SDS011;34865;51.046;3.732;2022-12-15T20:25:45;88.27;;;45.63;;
23072;SDS011;34865;51.046;3.732;2022-12-15T20:28:13;74.90;;;43.67;;
23072;SDS011;34865;51.046;3.732;2022-12-15T20:30:42;78.23;;;44.27;;
23072;SDS011;34865;51.046;3.732;2022-12-15T20:33:11;81.40;;;45.23;;
23072;SDS011;34865;51.046;3.732;2022-12-15T20:35:37;85.47;;;45.80;;
23072;SDS011;34865;51.046;3.732;2022-12-15T20:38:17;79.33;;;44.97;;
23072;SDS011;34865;51.046;3.732;2022-12-15T20:40:48;79.43;;;44.30;;
23072;SDS011;34865;51.046;3.732;2022-12-15T20:43:17;78.13;;;44.40;;
23072;SDS011;34865;51.046;3.732;2022-12-15T20:45:45;84.73;;;45.10;;
23072;SDS011;34865;51.046;3.732;2022-12-15T20:48:12;85.13;;;42.80;;
23072;SDS011;34865;51.046;3.732;2022-12-15T20:50:40;82.47;;;43.90;;
23072;SDS011;34865;51.046;3.732;2022-12-15T20:53:16;78.77;;;42.50;;
23072;SDS011;34865;51.046;3.732;2022-12-15T20:55:46;74.97;;;39.07;;
23072;SDS011;34865;51.046;3.732;2022-12-15T20:58:13;72.30;;;39.87;;
23072;SDS011;34865;51.046;3.732;2022-12-15T21:00:40;68.73;;;37.83;;
23072;SDS011;34865;51.046;3.732;2022-12-15T21:05:53;73.77;;;40.33;;
23072;SDS011;34865;51.046;3.732;2022-12-15T21:08:27;79.20;;;42.07;;
23072;SDS011;34865;51.046;3.732;2022-12-15T21:10:55;78.57;;;40.67;;
23072;SDS011;34865;51.046;3.732;2022-12-15T21:13:25;83.33;;;41.23;;
23072;SDS011;34865;51.046;3.732;2022-12-15T21:15:54;69.73;;;35.57;;
23072;SDS011;34865;51.046;3.732;2022-12-15T21:19:31;78.97;;;42.27;;
23072;SDS011;34865;51.046;3.732;2022-12-15T21:21:56;80.53;;;42.93;;
23072;SDS011;34865;51.046;3.732;2022-12-15T21:24:24;81.63;;;44.63;;
23072;SDS011;34865;51.046;3.732;2022-12-15T21:26:51;74.63;;;41.07;;
23072;SDS011;34865;51.046;3.732;2022-12-15T21:29:19;86.10;;;47.50;;
23072;SDS011;34865;51.046;3.732;2022-12-15T21:31:46;84.47;;;48.63;;
23072;SDS011;34865;51.046;3.732;2022-12-15T21:34:12;87.77;;;48.17;;
23072;SDS011;34865;51.046;3.732;2022-12-15T21:36:39;90.17;;;46.73;;
23072;SDS011;34865;51.046;3.732;2022-12-15T21:39:06;84.37;;;46.07;;
23072;SDS011;34865;51.046;3.732;2022-12-15T21:41:35;88.23;;;47.83;;
23072;SDS011;34865;51.046;3.732;2022-12-15T21:44:08;94.67;;;48.90;;
23072;SDS011;34865;51.046;3.732;2022-12-15T21:46:39;96.63;;;50.40;;
23072;SDS011;34865;51.046;3.732;2022-12-15T21:49:07;98.40;;;49.43;;